createdAt,value
2016-07-07T00:00:09.305Z,0
2016-07-07T00:01:09.315Z,0
2016-07-07T00:02:09.304Z,0
2016-07-07T00:03:09.299Z,0
2016-07-07T00:04:09.299Z,0
2016-07-07T00:05:09.294Z,0
2016-07-07T00:06:09.298Z,0
2016-07-07T00:07:09.303Z,0
2016-07-07T00:08:09.286Z,0
2016-07-07T00:09:09.275Z,0
2016-07-07T00:10:09.278Z,0
2016-07-07T00:11:09.258Z,0
2016-07-07T00:12:09.265Z,0
2016-07-07T00:13:09.265Z,0
2016-07-07T00:14:09.251Z,0
2016-07-07T00:15:12.422Z,0
2016-07-07T00:16:11.190Z,0
2016-07-07T00:17:10.025Z,0
2016-07-07T00:18:09.231Z,0
2016-07-07T00:19:09.383Z,0
2016-07-07T00:20:09.358Z,0
2016-07-07T00:21:09.232Z,0
2016-07-07T00:22:09.228Z,0
2016-07-07T00:23:09.293Z,0
2016-07-07T00:24:10.768Z,0
2016-07-07T00:25:10.599Z,0
2016-07-07T00:26:11.428Z,0
2016-07-07T00:27:10.540Z,0
2016-07-07T00:28:09.203Z,0
2016-07-07T00:29:24.292Z,0
2016-07-07T00:30:10.682Z,0
2016-07-07T00:31:09.620Z,0
2016-07-07T00:32:10.413Z,0
2016-07-07T00:33:09.864Z,0
2016-07-07T00:34:09.506Z,0
2016-07-07T00:35:09.177Z,0
2016-07-07T00:36:09.176Z,0
2016-07-07T00:37:09.156Z,0
2016-07-07T00:38:09.527Z,0
2016-07-07T00:39:09.158Z,0
2016-07-07T00:40:09.769Z,0
2016-07-07T00:41:24.048Z,0
2016-07-07T00:42:09.351Z,0
2016-07-07T00:43:09.839Z,0
2016-07-07T00:44:09.135Z,0
2016-07-07T00:45:09.152Z,0
2016-07-07T00:46:09.122Z,0
2016-07-07T00:47:09.127Z,0
2016-07-07T00:48:09.124Z,0
2016-07-07T00:49:09.121Z,0
2016-07-07T00:50:09.111Z,0
2016-07-07T00:51:09.110Z,0
2016-07-07T00:52:09.108Z,0
2016-07-07T00:53:09.099Z,0
2016-07-07T00:54:09.096Z,0
2016-07-07T00:55:09.111Z,0
2016-07-07T00:56:09.085Z,0
2016-07-07T00:57:09.081Z,0
2016-07-07T00:58:09.065Z,0
2016-07-07T00:59:09.071Z,0
2016-07-07T01:00:09.671Z,0
2016-07-07T01:01:09.067Z,0
2016-07-07T01:02:09.054Z,0
2016-07-07T01:03:09.034Z,0
2016-07-07T01:04:09.028Z,0
2016-07-07T01:05:09.027Z,0
2016-07-07T01:06:09.021Z,0
2016-07-07T01:07:09.021Z,0
2016-07-07T01:08:09.011Z,0
2016-07-07T01:09:09.005Z,0
2016-07-07T01:10:09.028Z,0
2016-07-07T01:11:09.027Z,0
2016-07-07T01:12:09.025Z,0
2016-07-07T01:13:08.991Z,0
2016-07-07T01:14:09.592Z,0
2016-07-07T01:15:08.998Z,0
2016-07-07T01:16:08.996Z,0
2016-07-07T01:17:08.993Z,0
2016-07-07T01:18:08.993Z,0
2016-07-07T01:19:08.975Z,0
2016-07-07T01:20:08.966Z,0
2016-07-07T01:21:08.971Z,0
2016-07-07T01:22:08.966Z,0
2016-07-07T01:23:08.945Z,0
2016-07-07T01:24:08.955Z,0
2016-07-07T01:25:08.953Z,0
2016-07-07T01:26:08.956Z,0
2016-07-07T01:27:09.092Z,0
2016-07-07T01:28:08.938Z,0
2016-07-07T01:29:08.934Z,0
2016-07-07T01:30:08.929Z,0
2016-07-07T01:31:08.905Z,0
2016-07-07T01:32:08.918Z,0
2016-07-07T01:33:12.534Z,0
2016-07-07T01:34:10.190Z,0
2016-07-07T01:35:11.556Z,0
2016-07-07T01:36:08.901Z,0
2016-07-07T01:37:09.884Z,0
2016-07-07T01:38:08.892Z,0
2016-07-07T01:39:08.874Z,0
2016-07-07T01:40:09.493Z,0
2016-07-07T01:41:08.946Z,0
2016-07-07T01:42:10.118Z,0
2016-07-07T01:43:12.523Z,0
2016-07-07T01:44:10.931Z,0
2016-07-07T01:45:11.360Z,0
2016-07-07T01:46:08.840Z,0
2016-07-07T01:47:10.163Z,0
2016-07-07T01:48:10.575Z,0
2016-07-07T01:49:23.827Z,0
2016-07-07T01:51:08.807Z,0
2016-07-07T01:52:08.795Z,0
2016-07-07T01:53:08.820Z,0
2016-07-07T01:54:08.793Z,0
2016-07-07T01:55:08.809Z,0
2016-07-07T01:56:09.338Z,0
2016-07-07T01:57:09.383Z,0
2016-07-07T01:58:09.814Z,0
2016-07-07T01:59:09.063Z,0
2016-07-07T02:00:08.818Z,4
2016-07-07T02:01:08.750Z,4
2016-07-07T02:02:08.747Z,4
2016-07-07T02:03:08.756Z,4
2016-07-07T02:04:09.356Z,0
2016-07-07T02:05:08.742Z,0
2016-07-07T02:06:08.728Z,4
2016-07-07T02:07:08.736Z,4
2016-07-07T02:08:08.733Z,4
2016-07-07T02:09:08.713Z,4
2016-07-07T02:10:09.321Z,4
2016-07-07T02:11:08.719Z,8
2016-07-07T02:12:08.687Z,4
2016-07-07T02:13:08.694Z,8
2016-07-07T02:14:08.687Z,8
2016-07-07T02:15:08.682Z,12
2016-07-07T02:16:08.682Z,12
2016-07-07T02:17:08.662Z,12
2016-07-07T02:18:08.665Z,12
2016-07-07T02:19:08.667Z,16
2016-07-07T02:20:08.678Z,16
2016-07-07T02:21:08.670Z,16
2016-07-07T02:22:08.668Z,20
2016-07-07T02:23:08.671Z,24
2016-07-07T02:24:08.659Z,28
2016-07-07T02:25:08.646Z,28
2016-07-07T02:26:09.235Z,32
2016-07-07T02:27:08.622Z,36
2016-07-07T02:28:08.623Z,40
2016-07-07T02:29:08.632Z,44
2016-07-07T02:30:09.220Z,48
2016-07-07T02:31:08.611Z,56
2016-07-07T02:32:09.214Z,60
2016-07-07T02:33:08.601Z,72
2016-07-07T02:34:08.594Z,80
2016-07-07T02:35:08.592Z,84
2016-07-07T02:36:08.583Z,92
2016-07-07T02:37:08.580Z,108
2016-07-07T02:38:08.577Z,116
2016-07-07T02:39:08.551Z,128
2016-07-07T02:40:08.576Z,140
2016-07-07T02:41:08.572Z,152
2016-07-07T02:42:08.564Z,168
2016-07-07T02:43:08.555Z,184
2016-07-07T02:44:08.544Z,200
2016-07-07T02:45:08.518Z,220
2016-07-07T02:46:08.512Z,236
2016-07-07T02:47:08.507Z,256
2016-07-07T02:48:08.525Z,280
2016-07-07T02:49:08.515Z,300
2016-07-07T02:50:08.510Z,324
2016-07-07T02:51:08.514Z,352
2016-07-07T02:52:11.894Z,380
2016-07-07T02:53:11.262Z,408
2016-07-07T02:54:10.104Z,432
2016-07-07T02:55:09.702Z,460
2016-07-07T02:56:09.189Z,496
2016-07-07T02:57:08.471Z,524
2016-07-07T02:58:08.462Z,560
2016-07-07T02:59:08.482Z,592
2016-07-07T03:00:08.449Z,628
2016-07-07T03:02:11.697Z,708
2016-07-07T03:03:09.781Z,748
2016-07-07T03:04:08.447Z,788
2016-07-07T03:05:09.090Z,832
2016-07-07T03:06:09.599Z,876
2016-07-07T03:07:08.967Z,924
2016-07-07T03:08:08.625Z,972
2016-07-07T03:09:09.158Z,1016
2016-07-07T03:10:08.409Z,1068
2016-07-07T03:11:08.390Z,1120
2016-07-07T03:12:08.390Z,1172
2016-07-07T03:13:08.390Z,1224
2016-07-07T03:14:09.427Z,1272
2016-07-07T03:16:09.223Z,1380
2016-07-07T03:17:09.061Z,1432
2016-07-07T03:18:08.565Z,1488
2016-07-07T03:19:08.353Z,1540
2016-07-07T03:20:08.330Z,1596
2016-07-07T03:21:08.330Z,1660
2016-07-07T03:22:08.916Z,1720
2016-07-07T03:23:08.303Z,1780
2016-07-07T03:24:08.299Z,1852
2016-07-07T03:25:08.316Z,1940
2016-07-07T03:26:08.311Z,2044
2016-07-07T03:27:08.399Z,2196
2016-07-07T03:28:08.294Z,2360
2016-07-07T03:29:08.304Z,2536
2016-07-07T03:30:08.296Z,2724
2016-07-07T03:31:08.269Z,2936
2016-07-07T03:32:08.283Z,3104
2016-07-07T03:33:08.266Z,3204
2016-07-07T03:34:08.265Z,3312
2016-07-07T03:35:08.844Z,3412
2016-07-07T03:36:08.242Z,3520
2016-07-07T03:37:08.231Z,3632
2016-07-07T03:38:08.227Z,3744
2016-07-07T03:39:08.236Z,3844
2016-07-07T03:40:08.243Z,3972
2016-07-07T03:41:08.244Z,4104
2016-07-07T03:42:08.236Z,4152
2016-07-07T03:43:08.224Z,4280
2016-07-07T03:44:08.214Z,4408
2016-07-07T03:45:08.215Z,4492
2016-07-07T03:46:08.787Z,4584
2016-07-07T03:47:08.208Z,5000
2016-07-07T03:48:08.209Z,5596
2016-07-07T03:49:08.197Z,6052
2016-07-07T03:50:08.176Z,6212
2016-07-07T03:51:08.192Z,6128
2016-07-07T03:52:08.185Z,6052
2016-07-07T03:53:08.182Z,6040
2016-07-07T03:54:08.191Z,6164
2016-07-07T03:55:08.773Z,6364
2016-07-07T03:56:08.183Z,6700
2016-07-07T03:57:08.170Z,6912
2016-07-07T03:58:08.163Z,6944
2016-07-07T03:59:08.779Z,7100
2016-07-07T04:00:08.182Z,7348
2016-07-07T04:01:08.160Z,7584
2016-07-07T04:02:08.168Z,7708
2016-07-07T04:03:08.172Z,7864
2016-07-07T04:04:08.162Z,8204
2016-07-07T04:05:08.165Z,8580
2016-07-07T04:06:08.162Z,8432
2016-07-07T04:07:08.177Z,8348
2016-07-07T04:08:08.163Z,8664
2016-07-07T04:09:08.190Z,9240
2016-07-07T04:11:11.489Z,9860
2016-07-07T04:12:10.182Z,10140
2016-07-07T04:13:08.963Z,10140
2016-07-07T04:14:09.489Z,10256
2016-07-07T04:15:08.173Z,10568
2016-07-07T04:16:08.564Z,10860
2016-07-07T04:17:08.192Z,11196
2016-07-07T04:18:08.198Z,11580
2016-07-07T04:19:09.299Z,11260
2016-07-07T04:20:10.326Z,11080
2016-07-07T04:21:11.049Z,11596
2016-07-07T04:22:10.006Z,12168
2016-07-07T04:23:08.190Z,12536
2016-07-07T04:24:23.244Z,13028
2016-07-07T04:25:09.103Z,13248
2016-07-07T04:26:09.611Z,13036
2016-07-07T04:27:09.924Z,12848
2016-07-07T04:28:08.772Z,13676
2016-07-07T04:29:08.257Z,13664
2016-07-07T04:30:08.213Z,14528
2016-07-07T04:31:08.219Z,14688
2016-07-07T04:32:08.252Z,14912
2016-07-07T04:33:08.287Z,15456
2016-07-07T04:34:09.106Z,15616
2016-07-07T04:35:08.421Z,16000
2016-07-07T04:36:23.221Z,16000
2016-07-07T04:37:09.315Z,16032
2016-07-07T04:38:08.537Z,16576
2016-07-07T04:39:08.261Z,17056
2016-07-07T04:40:08.279Z,16640
2016-07-07T04:41:08.278Z,16640
2016-07-07T04:42:08.311Z,17280
2016-07-07T04:43:08.306Z,18656
2016-07-07T04:44:08.316Z,19808
2016-07-07T04:45:08.330Z,20480
2016-07-07T04:46:08.344Z,20864
2016-07-07T04:47:08.351Z,20640
2016-07-07T04:48:08.337Z,20704
2016-07-07T04:49:08.373Z,21856
2016-07-07T04:50:08.361Z,21792
2016-07-07T04:51:08.370Z,21408
2016-07-07T04:52:08.372Z,21952
2016-07-07T04:53:08.391Z,23168
2016-07-07T04:54:08.387Z,22560
2016-07-07T04:55:08.399Z,22464
2016-07-07T04:56:08.420Z,22112
2016-07-07T04:57:08.420Z,21760
2016-07-07T04:58:08.426Z,21088
2016-07-07T04:59:08.463Z,21152
2016-07-07T05:00:08.435Z,23808
2016-07-07T05:01:08.452Z,24288
2016-07-07T05:02:08.450Z,24704
2016-07-07T05:03:08.464Z,26720
2016-07-07T05:04:08.495Z,27584
2016-07-07T05:05:08.493Z,25152
2016-07-07T05:06:09.121Z,23904
2016-07-07T05:07:08.514Z,25792
2016-07-07T05:08:08.527Z,26912
2016-07-07T05:09:08.538Z,25408
2016-07-07T05:10:08.550Z,24192
2016-07-07T05:11:08.554Z,25696
2016-07-07T05:12:08.560Z,25376
2016-07-07T05:13:08.574Z,26208
2016-07-07T05:14:08.582Z,27584
2016-07-07T05:15:09.212Z,27136
2016-07-07T05:16:08.621Z,26976
2016-07-07T05:17:08.621Z,26592
2016-07-07T05:18:08.638Z,27168
2016-07-07T05:19:08.644Z,27456
2016-07-07T05:20:08.650Z,27296
2016-07-07T05:21:08.666Z,27104
2016-07-07T05:22:08.675Z,27520
2016-07-07T05:23:08.667Z,28032
2016-07-07T05:24:08.684Z,27200
2016-07-07T05:25:08.715Z,28608
2016-07-07T05:26:08.722Z,30016
2016-07-07T05:27:08.839Z,28544
2016-07-07T05:28:12.456Z,29632
2016-07-07T05:29:10.061Z,30592
2016-07-07T05:30:11.547Z,30816
2016-07-07T05:31:08.792Z,30848
2016-07-07T05:32:10.036Z,20160
2016-07-07T05:33:08.801Z,32096
2016-07-07T05:34:08.817Z,33248
2016-07-07T05:35:08.833Z,33536
2016-07-07T05:36:08.845Z,34144
2016-07-07T05:37:10.344Z,32640
2016-07-07T05:39:12.008Z,34368
2016-07-07T05:40:10.484Z,34912
2016-07-07T05:41:09.693Z,35456
2016-07-07T05:42:09.449Z,36288
2016-07-07T05:43:24.488Z,35520
2016-07-07T05:44:09.647Z,36320
2016-07-07T05:45:09.330Z,37952
2016-07-07T05:46:09.711Z,39232
2016-07-07T05:47:09.835Z,40800
2016-07-07T05:48:08.974Z,41824
2016-07-07T05:49:08.998Z,39520
2016-07-07T05:50:09.018Z,37024
2016-07-07T05:51:09.830Z,37440
2016-07-07T05:52:09.744Z,40448
2016-07-07T05:53:09.649Z,40768
2016-07-07T05:55:09.074Z,39168
2016-07-07T05:56:09.083Z,38976
2016-07-07T05:57:09.108Z,42848
2016-07-07T05:58:09.106Z,42208
2016-07-07T05:59:09.122Z,38624
2016-07-07T06:00:09.145Z,41728
2016-07-07T06:01:09.151Z,46944
2016-07-07T06:02:09.152Z,28384
2016-07-07T06:03:09.163Z,48960
2016-07-07T06:04:09.194Z,45920
2016-07-07T06:05:09.202Z,13476
2016-07-07T06:06:09.215Z,13192
2016-07-07T06:07:09.233Z,46976
2016-07-07T06:08:09.237Z,45280
2016-07-07T06:09:09.260Z,44896
2016-07-07T06:10:09.272Z,46720
2016-07-07T06:11:09.263Z,47936
2016-07-07T06:12:09.279Z,47200
2016-07-07T06:13:09.284Z,48448
2016-07-07T06:14:09.310Z,48736
2016-07-07T06:15:09.320Z,50176
2016-07-07T06:16:09.340Z,53824
2016-07-07T06:17:09.347Z,55040
2016-07-07T06:18:09.386Z,55552
2016-07-07T06:19:09.379Z,54592
2016-07-07T06:20:09.418Z,15720
2016-07-07T06:21:09.429Z,60992
2016-07-07T06:22:09.439Z,46912
2016-07-07T06:23:09.452Z,46560
2016-07-07T06:24:09.478Z,51104
2016-07-07T06:25:09.474Z,62656
2016-07-07T06:26:09.493Z,63968
2016-07-07T06:27:09.554Z,67776
2016-07-07T06:28:09.536Z,69344
2016-07-07T06:29:09.522Z,52512
2016-07-07T06:30:09.542Z,16576
2016-07-07T06:31:09.540Z,13980
2016-07-07T06:32:09.567Z,11228
2016-07-07T06:33:09.589Z,13488
2016-07-07T06:34:09.588Z,17376
2016-07-07T06:35:09.608Z,21216
2016-07-07T06:36:09.630Z,13148
2016-07-07T06:37:09.648Z,19040
2016-07-07T06:38:09.656Z,63072
2016-07-07T06:39:09.672Z,75136
2016-07-07T06:40:09.688Z,66848
2016-07-07T06:41:09.695Z,38336
2016-07-07T06:42:09.712Z,40000
2016-07-07T06:43:09.717Z,63008
2016-07-07T06:44:09.734Z,44960
2016-07-07T06:45:09.747Z,20832
2016-07-07T06:46:11.258Z,80672
2016-07-07T06:48:12.323Z,59488
2016-07-07T06:49:09.912Z,69856
2016-07-07T06:50:10.551Z,73856
2016-07-07T06:51:09.874Z,79808
2016-07-07T06:52:09.813Z,74080
2016-07-07T06:53:09.848Z,85216
2016-07-07T06:54:09.850Z,83232
2016-07-07T06:55:09.870Z,69696
2016-07-07T06:56:12.935Z,18944
2016-07-07T06:57:13.040Z,13748
2016-07-07T06:58:12.368Z,87552
2016-07-07T06:59:10.356Z,89344
2016-07-07T07:00:10.197Z,74560
2016-07-07T07:01:10.349Z,48224
2016-07-07T07:02:10.047Z,28352
2016-07-07T07:03:10.123Z,14152
2016-07-07T07:04:10.988Z,83904
2016-07-07T07:05:09.998Z,12592
2016-07-07T07:06:10.001Z,14392
2016-07-07T07:07:10.026Z,12132
2016-07-07T07:08:10.012Z,12924
2016-07-07T07:09:10.841Z,84160
2016-07-07T07:10:10.705Z,84256
2016-07-07T07:11:10.421Z,85792
2016-07-07T07:12:10.082Z,89568
2016-07-07T07:13:10.096Z,94176
2016-07-07T07:14:10.408Z,99520
2016-07-07T07:15:10.124Z,78272
2016-07-07T07:16:10.132Z,90368
2016-07-07T07:17:10.152Z,30560
2016-07-07T07:18:10.153Z,93504
2016-07-07T07:19:10.171Z,94464
2016-07-07T07:20:10.164Z,98656
2016-07-07T07:21:10.212Z,100256
2016-07-07T07:22:10.214Z,102208
2016-07-07T07:23:10.232Z,96352
2016-07-07T07:24:10.242Z,84384
2016-07-07T07:25:10.240Z,102112
2016-07-07T07:26:10.282Z,111360
2016-07-07T07:27:10.377Z,48160
2016-07-07T07:28:10.303Z,14268
2016-07-07T07:29:10.325Z,14824
2016-07-07T07:30:10.345Z,99648
2016-07-07T07:31:10.354Z,18656
2016-07-07T07:32:10.383Z,97472
2016-07-07T07:33:10.387Z,96384
2016-07-07T07:34:10.397Z,99776
2016-07-07T07:35:10.414Z,104512
2016-07-07T07:36:10.426Z,88288
2016-07-07T07:37:10.450Z,75360
2016-07-07T07:38:10.442Z,96544
2016-07-07T07:39:10.470Z,115584
2016-07-07T07:40:10.478Z,22400
2016-07-07T07:41:10.516Z,17504
2016-07-07T07:42:10.517Z,16992
2016-07-07T07:43:10.529Z,15792
2016-07-07T07:44:10.538Z,24224
2016-07-07T07:45:10.582Z,12936
2016-07-07T07:46:10.602Z,12252
2016-07-07T07:47:10.608Z,14084
2016-07-07T07:48:10.619Z,102528
2016-07-07T07:49:10.622Z,104192
2016-07-07T07:50:10.625Z,107584
2016-07-07T07:51:10.652Z,111584
2016-07-07T07:52:10.678Z,114080
2016-07-07T07:53:10.675Z,26816
2016-07-07T07:54:10.703Z,18560
2016-07-07T07:55:10.708Z,14732
2016-07-07T07:56:10.718Z,11656
2016-07-07T07:57:10.735Z,10776
2016-07-07T07:58:10.728Z,11952
2016-07-07T07:59:10.778Z,84032
2016-07-07T08:00:10.775Z,85888
2016-07-07T08:01:10.798Z,89408
2016-07-07T08:02:10.806Z,94432
2016-07-07T08:03:10.833Z,89408
2016-07-07T08:04:10.847Z,84672
2016-07-07T08:06:13.714Z,84704
2016-07-07T08:07:12.276Z,88480
2016-07-07T08:08:10.913Z,91008
2016-07-07T08:09:11.381Z,93760
2016-07-07T08:10:11.189Z,38304
2016-07-07T08:11:10.937Z,28704
2016-07-07T08:12:10.942Z,16480
2016-07-07T08:13:10.970Z,13116
2016-07-07T08:14:13.729Z,11968
2016-07-07T08:15:12.553Z,13844
2016-07-07T08:16:11.722Z,10212
2016-07-07T08:17:11.042Z,123040
2016-07-07T08:18:26.738Z,130016
2016-07-07T08:19:12.520Z,127392
2016-07-07T08:20:11.803Z,121888
2016-07-07T08:21:12.284Z,118400
2016-07-07T08:22:11.703Z,117632
2016-07-07T08:24:11.136Z,103232
2016-07-07T08:25:11.124Z,36352
2016-07-07T08:26:11.157Z,23328
2016-07-07T08:27:14.113Z,58208
2016-07-07T08:28:11.580Z,44512
2016-07-07T08:29:11.394Z,15716
2016-07-07T08:30:26.966Z,11848
2016-07-07T08:31:11.239Z,11396
2016-07-07T08:32:11.253Z,11312
2016-07-07T08:33:12.096Z,11640
2016-07-07T08:34:11.276Z,11452
2016-07-07T08:35:11.301Z,11520
2016-07-07T08:36:11.305Z,81568
2016-07-07T08:37:11.305Z,82688
2016-07-07T08:38:11.336Z,83136
2016-07-07T08:39:11.346Z,80800
2016-07-07T08:40:11.355Z,78048
2016-07-07T08:41:11.373Z,81728
2016-07-07T08:42:11.374Z,84544
2016-07-07T08:43:11.379Z,87424
2016-07-07T08:44:11.411Z,90048
2016-07-07T08:45:11.414Z,87424
2016-07-07T08:46:11.435Z,90304
2016-07-07T08:47:11.449Z,89248
2016-07-07T08:48:11.441Z,98496
2016-07-07T08:49:11.447Z,26688
2016-07-07T08:50:11.482Z,98880
2016-07-07T08:51:11.495Z,98208
2016-07-07T08:52:11.495Z,96320
2016-07-07T08:53:11.523Z,94432
2016-07-07T08:54:11.518Z,86688
2016-07-07T08:55:11.523Z,85472
2016-07-07T08:56:11.545Z,86336
2016-07-07T08:57:11.573Z,92288
2016-07-07T08:58:11.604Z,99520
2016-07-07T08:59:11.600Z,100064
2016-07-07T09:00:11.606Z,102176
2016-07-07T09:01:11.635Z,85824
2016-07-07T09:02:11.647Z,21792
2016-07-07T09:03:11.664Z,18272
2016-07-07T09:04:11.671Z,17632
2016-07-07T09:05:11.686Z,17696
2016-07-07T09:06:11.698Z,20096
2016-07-07T09:07:11.707Z,19648
2016-07-07T09:08:11.724Z,20512
2016-07-07T09:09:11.747Z,21472
2016-07-07T09:10:11.724Z,22304
2016-07-07T09:11:11.750Z,23104
2016-07-07T09:12:11.760Z,25248
2016-07-07T09:13:11.764Z,25536
2016-07-07T09:14:11.779Z,23008
2016-07-07T09:15:11.790Z,21312
2016-07-07T09:16:11.808Z,20416
2016-07-07T09:17:11.810Z,19648
2016-07-07T09:18:11.818Z,18720
2016-07-07T09:19:11.816Z,18624
2016-07-07T09:20:11.843Z,17792
2016-07-07T09:21:11.839Z,16704
2016-07-07T09:22:11.837Z,16000
2016-07-07T09:23:14.863Z,15988
2016-07-07T09:25:14.518Z,15488
2016-07-07T09:26:14.118Z,15576
2016-07-07T09:27:13.375Z,16116
2016-07-07T09:28:11.898Z,16160
2016-07-07T09:29:11.928Z,18784
2016-07-07T09:30:11.917Z,22944
2016-07-07T09:31:11.931Z,25760
2016-07-07T09:32:13.810Z,26624
2016-07-07T09:34:14.179Z,23456
2016-07-07T09:35:14.313Z,20480
2016-07-07T09:36:11.969Z,18656
2016-07-07T09:37:26.919Z,18848
2016-07-07T09:38:13.419Z,19072
2016-07-07T09:39:12.707Z,19200
2016-07-07T09:40:27.138Z,19648
2016-07-07T09:41:12.002Z,18848
2016-07-07T09:42:11.986Z,19008
2016-07-07T09:43:12.460Z,20736
2016-07-07T09:44:12.008Z,21952
2016-07-07T09:45:12.029Z,24160
2016-07-07T09:46:12.336Z,25952
2016-07-07T09:47:12.902Z,25248
2016-07-07T09:49:12.661Z,23552
2016-07-07T09:50:26.961Z,20864
2016-07-07T09:51:12.616Z,18944
2016-07-07T09:52:12.130Z,16448
2016-07-07T09:53:12.084Z,14536
2016-07-07T09:54:12.086Z,13712
2016-07-07T09:55:12.102Z,14152
2016-07-07T09:56:12.716Z,16736
2016-07-07T09:57:12.087Z,20160
2016-07-07T09:58:12.121Z,21888
2016-07-07T09:59:12.123Z,23008
2016-07-07T10:00:12.123Z,23040
2016-07-07T10:01:12.115Z,23264
2016-07-07T10:02:12.727Z,23648
2016-07-07T10:03:12.124Z,22272
2016-07-07T10:04:12.139Z,19584
2016-07-07T10:05:12.134Z,17760
2016-07-07T10:06:12.155Z,17280
2016-07-07T10:07:12.777Z,18944
2016-07-07T10:08:12.189Z,19744
2016-07-07T10:09:12.176Z,20448
2016-07-07T10:10:12.204Z,20320
2016-07-07T10:11:12.205Z,21248
2016-07-07T10:12:12.201Z,22240
2016-07-07T10:13:12.208Z,24288
2016-07-07T10:14:12.191Z,26048
2016-07-07T10:16:12.235Z,26112
2016-07-07T10:17:12.242Z,23808
2016-07-07T10:18:12.231Z,21536
2016-07-07T10:19:12.255Z,19776
2016-07-07T10:20:12.253Z,18944
2016-07-07T10:21:12.260Z,19488
2016-07-07T10:22:12.264Z,20576
2016-07-07T10:23:12.280Z,21632
2016-07-07T10:24:12.271Z,22720
2016-07-07T10:25:12.293Z,23680
2016-07-07T10:26:12.296Z,24096
2016-07-07T10:27:12.296Z,24448
2016-07-07T10:28:12.311Z,23904
2016-07-07T10:29:12.902Z,22400
2016-07-07T10:30:12.294Z,20896
2016-07-07T10:31:12.297Z,20640
2016-07-07T10:32:12.322Z,20288
2016-07-07T10:33:12.345Z,20160
2016-07-07T10:34:12.328Z,19552
2016-07-07T10:35:12.324Z,17984
2016-07-07T10:36:12.352Z,14916
2016-07-07T10:37:12.349Z,11644
2016-07-07T10:38:12.364Z,9716
2016-07-07T10:39:12.370Z,10108
2016-07-07T10:40:12.374Z,10952
2016-07-07T10:41:12.385Z,11544
2016-07-07T10:42:12.383Z,12044
2016-07-07T10:43:13.001Z,11424
2016-07-07T10:44:12.385Z,11288
2016-07-07T10:45:12.418Z,11836
2016-07-07T10:46:12.386Z,12852
2016-07-07T10:47:12.408Z,13016
2016-07-07T10:48:12.438Z,12352
2016-07-07T10:49:12.438Z,11808
2016-07-07T10:50:12.435Z,11568
2016-07-07T10:51:12.438Z,11040
2016-07-07T10:52:12.447Z,10560
2016-07-07T10:53:12.458Z,10736
2016-07-07T10:54:12.460Z,11300
2016-07-07T10:55:13.468Z,12312
2016-07-07T10:56:13.937Z,13264
2016-07-07T10:57:12.578Z,15092
2016-07-07T10:58:12.475Z,17088
2016-07-07T10:59:12.576Z,18560
2016-07-07T11:00:12.493Z,20640
2016-07-07T11:01:13.105Z,22816
2016-07-07T11:02:12.808Z,23456
2016-07-07T11:03:12.512Z,23488
2016-07-07T11:04:13.863Z,23744
2016-07-07T11:05:13.026Z,23584
2016-07-07T11:06:12.569Z,21984
2016-07-07T11:07:12.682Z,19904
2016-07-07T11:08:12.536Z,18912
2016-07-07T11:09:13.138Z,18656
2016-07-07T11:10:13.290Z,18784
2016-07-07T11:11:12.843Z,19136
2016-07-07T11:12:12.529Z,19104
2016-07-07T11:13:12.568Z,19200
2016-07-07T11:14:12.540Z,19712
2016-07-07T11:15:12.564Z,20096
2016-07-07T11:16:12.579Z,18496
2016-07-07T11:17:12.575Z,16448
2016-07-07T11:18:12.576Z,14544
2016-07-07T11:19:12.580Z,12976
2016-07-07T11:20:13.193Z,11680
2016-07-07T11:21:12.597Z,11244
2016-07-07T11:22:12.606Z,10760
2016-07-07T11:23:12.617Z,12024
2016-07-07T11:24:12.589Z,13448
2016-07-07T11:25:12.622Z,15492
2016-07-07T11:26:12.633Z,17856
2016-07-07T11:27:12.642Z,18432
2016-07-07T11:28:12.632Z,18880
2016-07-07T11:29:12.654Z,19072
2016-07-07T11:30:12.654Z,19328
2016-07-07T11:31:12.651Z,19296
2016-07-07T11:32:12.671Z,20128
2016-07-07T11:33:12.668Z,21312
2016-07-07T11:34:12.669Z,22208
2016-07-07T11:35:12.669Z,22624
2016-07-07T11:36:12.689Z,23136
2016-07-07T11:37:12.681Z,23424
2016-07-07T11:38:12.682Z,23680
2016-07-07T11:39:12.742Z,23744
2016-07-07T11:40:12.747Z,23232
2016-07-07T11:41:15.706Z,21664
2016-07-07T11:42:13.027Z,20960
2016-07-07T11:43:15.610Z,19520
2016-07-07T11:44:12.920Z,18048
2016-07-07T11:45:13.304Z,16288
2016-07-07T11:46:12.746Z,15936
2016-07-07T11:47:13.091Z,16672
2016-07-07T11:48:12.998Z,17760
2016-07-07T11:49:12.770Z,18016
2016-07-07T11:50:12.775Z,17728
2016-07-07T11:52:14.756Z,17760
2016-07-07T11:53:12.790Z,17696
2016-07-07T11:54:13.591Z,17632
2016-07-07T11:55:13.184Z,17184
2016-07-07T11:56:12.801Z,15304
2016-07-07T11:57:12.822Z,14428
2016-07-07T11:58:12.827Z,13700
2016-07-07T11:59:12.853Z,13128
2016-07-07T12:00:12.838Z,13240
2016-07-07T12:01:12.842Z,13672
2016-07-07T12:02:12.843Z,14300
2016-07-07T12:03:12.858Z,15996
2016-07-07T12:04:12.861Z,17696
2016-07-07T12:05:12.857Z,18080
2016-07-07T12:06:12.866Z,18976
2016-07-07T12:07:12.870Z,19744
2016-07-07T12:08:12.887Z,18432
2016-07-07T12:09:12.890Z,16640
2016-07-07T12:10:12.869Z,14904
2016-07-07T12:11:12.914Z,13400
2016-07-07T12:12:12.912Z,13004
2016-07-07T12:13:13.763Z,12912
2016-07-07T12:14:13.467Z,12644
2016-07-07T12:15:14.673Z,12884
2016-07-07T12:17:13.185Z,11916
2016-07-07T12:18:12.935Z,11424
2016-07-07T12:19:13.093Z,11392
2016-07-07T12:20:13.088Z,12044
2016-07-07T12:21:12.957Z,12924
2016-07-07T12:22:12.956Z,13668
2016-07-07T12:23:14.760Z,15112
2016-07-07T12:24:15.222Z,16704
2016-07-07T12:25:13.965Z,17984
2016-07-07T12:26:28.181Z,19264
2016-07-07T12:27:13.720Z,19776
2016-07-07T12:28:12.994Z,19744
2016-07-07T12:29:13.056Z,18688
2016-07-07T12:30:13.012Z,17536
2016-07-07T12:31:12.990Z,16148
2016-07-07T12:32:13.005Z,15140
2016-07-07T12:33:12.998Z,14376
2016-07-07T12:34:13.024Z,12736
2016-07-07T12:35:13.026Z,11556
2016-07-07T12:36:13.034Z,11324
2016-07-07T12:37:13.639Z,11208
2016-07-07T12:38:13.037Z,11064
2016-07-07T12:39:13.037Z,10928
2016-07-07T12:40:13.046Z,11200
2016-07-07T12:41:13.046Z,12472
2016-07-07T12:42:13.058Z,13964
2016-07-07T12:43:13.061Z,14716
2016-07-07T12:44:13.064Z,14668
2016-07-07T12:45:13.075Z,15096
2016-07-07T12:46:13.081Z,15872
2016-07-07T12:47:13.081Z,15600
2016-07-07T12:48:13.096Z,14484
2016-07-07T12:49:13.090Z,13224
2016-07-07T12:50:13.092Z,11504
2016-07-07T12:51:13.109Z,10164
2016-07-07T12:52:13.032Z,9708
2016-07-07T12:53:13.035Z,9312
2016-07-07T12:54:13.058Z,8788
2016-07-07T12:55:13.042Z,8516
2016-07-07T12:56:13.044Z,8244
2016-07-07T12:57:13.059Z,7960
2016-07-07T12:58:13.062Z,8024
2016-07-07T12:59:13.068Z,7884
2016-07-07T13:00:13.572Z,7484
2016-07-07T13:01:13.733Z,7460
2016-07-07T13:02:15.663Z,7332
2016-07-07T13:03:13.960Z,6976
2016-07-07T13:04:14.112Z,6888
2016-07-07T13:05:13.950Z,6964
2016-07-07T13:06:13.103Z,6880
2016-07-07T13:07:13.107Z,6892
2016-07-07T13:08:13.110Z,6692
2016-07-07T13:09:15.901Z,6588
2016-07-07T13:11:15.148Z,6284
2016-07-07T13:12:14.040Z,6384
2016-07-07T13:13:14.739Z,6632
2016-07-07T13:14:13.128Z,6696
2016-07-07T13:16:13.139Z,7388
2016-07-07T13:17:13.143Z,8028
2016-07-07T13:18:13.158Z,8932
2016-07-07T13:19:13.154Z,10004
2016-07-07T13:20:13.149Z,11132
2016-07-07T13:21:13.158Z,11844
2016-07-07T13:22:13.163Z,12004
2016-07-07T13:23:13.164Z,11812
2016-07-07T13:24:13.161Z,11672
2016-07-07T13:25:13.173Z,11808
2016-07-07T13:26:13.168Z,12152
2016-07-07T13:27:13.177Z,12380
2016-07-07T13:28:13.236Z,11852
2016-07-07T13:29:13.176Z,11420
2016-07-07T13:30:13.189Z,11424
2016-07-07T13:31:13.185Z,11692
2016-07-07T13:34:13.557Z,8828
2016-07-07T13:35:14.456Z,8392